Time;durP1;ratioP1;P1;durP2;ratioP2;P2;SDS_P1;SDS_P2;PMS_P1;PMS_P2;Temp;Humidity;BMP_temperature;BMP_pressure;BME280_temperature;BME280_humidity;BME280_pressure;Samples;Min_cycle;Max_cycle;Signal;HPM_P1;HPM_P2
2022/03/14 00:01:26;;;;;;;7.18;3.17;;;;;;;;;;5042691;28;20254;-79
2022/03/14 00:03:57;;;;;;;8.20;3.70;;;;;;;;;;5043017;28;20041;-80
2022/03/14 00:06:23;;;;;;;12.20;3.20;;;;;;;;;;5042969;28;20021;-80
2022/03/14 00:08:50;;;;;;;12.43;3.35;;;;;;;;;;5042747;28;20035;-80
2022/03/14 00:11:16;;;;;;;12.70;3.72;;;;;;;;;;5041420;28;20245;-80
2022/03/14 00:13:44;;;;;;;7.70;3.13;;;;;;;;;;5042510;28;20022;-79
2022/03/14 00:16:13;;;;;;;8.75;3.08;;;;;;;;;;5042679;28;20032;-80
2022/03/14 00:18:40;;;;;;;10.95;2.95;;;;;;;;;;5042723;28;20214;-79
2022/03/14 00:21:06;;;;;;;12.50;3.28;;;;;;;;;;5041351;28;20546;-80
2022/03/14 00:23:32;;;;;;;8.93;2.97;;;;;;;;;;5042705;28;20099;-81
2022/03/14 00:25:58;;;;;;;7.18;3.17;;;;;;;;;;5041134;28;20026;-75
2022/03/14 00:28:24;;;;;;;10.07;3.20;;;;;;;;;;5042439;28;20464;-74
2022/03/14 00:30:49;;;;;;;9.55;3.00;;;;;;;;;;5042068;28;20029;-74
2022/03/14 00:33:14;;;;;;;12.02;3.47;;;;;;;;;;5042181;28;20017;-73
2022/03/14 00:35:40;;;;;;;11.45;3.00;;;;;;;;;;5042202;28;20116;-73
2022/03/14 00:38:05;;;;;;;11.93;3.67;;;;;;;;;;5042288;28;20071;-72
2022/03/14 00:40:31;;;;;;;8.68;2.78;;;;;;;;;;5041487;28;20081;-72
2022/03/14 00:42:56;;;;;;;7.65;2.72;;;;;;;;;;5041992;28;20316;-73
2022/03/14 00:45:23;;;;;;;7.18;2.92;;;;;;;;;;5042002;28;20091;-72
2022/03/14 00:47:49;;;;;;;9.15;2.80;;;;;;;;;;5042120;28;20021;-74
2022/03/14 00:50:15;;;;;;;10.93;2.53;;;;;;;;;;5040167;28;20044;-72
2022/03/14 00:52:40;;;;;;;12.63;2.67;;;;;;;;;;5041847;28;20025;-73
2022/03/14 00:55:06;;;;;;;12.85;3.10;;;;;;;;;;5041218;28;20028;-72
2022/03/14 00:57:31;;;;;;;9.38;2.50;;;;;;;;;;5040642;28;20025;-72
2022/03/14 00:59:57;;;;;;;9.10;2.60;;;;;;;;;;5041942;28;20261;-72
2022/03/14 01:02:22;;;;;;;8.00;2.65;;;;;;;;;;5041172;28;20089;-72
2022/03/14 01:04:47;;;;;;;16.00;3.60;;;;;;;;;;5041721;28;20087;-73
2022/03/14 01:07:13;;;;;;;11.70;2.70;;;;;;;;;;5041612;28;20048;-72
2022/03/14 01:09:38;;;;;;;9.85;3.05;;;;;;;;;;5040840;28;20045;-72
2022/03/14 01:12:04;;;;;;;7.50;2.50;;;;;;;;;;5041313;28;20029;-72
2022/03/14 01:14:30;;;;;;;7.07;2.30;;;;;;;;;;5041600;28;20025;-72
2022/03/14 01:16:55;;;;;;;10.63;2.78;;;;;;;;;;5041523;28;20033;-73
2022/03/14 01:19:21;;;;;;;12.40;2.65;;;;;;;;;;5041613;28;20080;-73
2022/03/14 01:21:47;;;;;;;9.60;2.45;;;;;;;;;;5041396;28;20025;-72
2022/03/14 01:24:13;;;;;;;7.63;2.60;;;;;;;;;;5040444;28;20259;-73
2022/03/14 01:26:39;;;;;;;10.32;2.47;;;;;;;;;;5041360;28;20022;-73
2022/03/14 01:29:05;;;;;;;11.07;2.38;;;;;;;;;;5041448;28;20281;-72
2022/03/14 01:31:31;;;;;;;9.80;2.15;;;;;;;;;;5040845;28;20033;-72
2022/03/14 01:33:57;;;;;;;7.75;2.65;;;;;;;;;;5041308;28;20067;-73
2022/03/14 01:36:23;;;;;;;10.65;2.58;;;;;;;;;;5041147;28;20029;-73
2022/03/14 01:38:48;;;;;;;10.93;2.40;;;;;;;;;;5039294;28;20045;-73
2022/03/14 01:41:18;;;;;;;11.57;2.42;;;;;;;;;;5040793;28;20026;-74
2022/03/14 01:43:45;;;;;;;9.07;2.75;;;;;;;;;;5041085;28;20041;-72
2022/03/14 01:46:13;;;;;;;11.20;2.50;;;;;;;;;;5041151;28;20217;-72
2022/03/14 01:48:38;;;;;;;8.15;2.10;;;;;;;;;;5041332;28;20027;-72
2022/03/14 01:51:03;;;;;;;10.73;2.47;;;;;;;;;;5028205;28;20202;-72
2022/03/14 01:53:30;;;;;;;11.38;2.55;;;;;;;;;;5019864;28;20038;-72
2022/03/14 01:55:56;;;;;;;9.80;2.53;;;;;;;;;;5036012;28;20082;-72
2022/03/14 01:58:22;;;;;;;13.82;2.60;;;;;;;;;;5028215;28;20025;-72
2022/03/14 02:00:48;;;;;;;7.57;2.35;;;;;;;;;;5019992;28;20348;-72
2022/03/14 02:03:13;;;;;;;8.77;2.15;;;;;;;;;;5025744;28;20022;-72
2022/03/14 02:05:40;;;;;;;10.30;2.50;;;;;;;;;;5033644;28;20022;-72
2022/03/14 02:08:06;;;;;;;13.10;2.60;;;;;;;;;;5020870;28;20041;-72
2022/03/14 02:10:34;;;;;;;11.00;2.80;;;;;;;;;;5022482;28;20080;-72
2022/03/14 02:13:05;;;;;;;9.57;2.40;;;;;;;;;;5019707;28;20013;-72
2022/03/14 02:15:30;;;;;;;8.65;2.38;;;;;;;;;;5018557;28;20033;-72
2022/03/14 02:17:55;;;;;;;14.93;2.50;;;;;;;;;;5019871;28;20034;-72
2022/03/14 02:20:21;;;;;;;14.57;2.25;;;;;;;;;;5028386;28;20025;-72
2022/03/14 02:22:46;;;;;;;11.60;2.90;;;;;;;;;;5039879;28;20116;-71
2022/03/14 02:25:11;;;;;;;10.07;2.33;;;;;;;;;;5039282;28;20043;-72
2022/03/14 02:27:37;;;;;;;10.35;2.40;;;;;;;;;;5040041;28;20021;-72
2022/03/14 02:30:03;;;;;;;12.85;2.63;;;;;;;;;;5040174;28;20017;-72
2022/03/14 02:32:29;;;;;;;12.60;2.50;;;;;;;;;;5039609;28;20033;-72
2022/03/14 02:34:54;;;;;;;17.70;2.80;;;;;;;;;;5039732;28;20037;-72
2022/03/14 02:37:20;;;;;;;10.68;2.28;;;;;;;;;;5039800;28;20041;-72
2022/03/14 02:39:47;;;;;;;9.73;2.25;;;;;;;;;;5038992;28;20025;-72
2022/03/14 02:42:13;;;;;;;11.40;2.30;;;;;;;;;;5039676;28;20181;-72
2022/03/14 02:44:41;;;;;;;10.07;2.25;;;;;;;;;;5039906;28;20029;-72
2022/03/14 02:47:08;;;;;;;10.43;2.35;;;;;;;;;;5039869;28;20301;-72
2022/03/14 02:49:34;;;;;;;9.75;2.75;;;;;;;;;;5038395;28;20031;-72
2022/03/14 02:52:00;;;;;;;10.60;2.38;;;;;;;;;;5039559;28;20017;-72
2022/03/14 02:54:25;;;;;;;8.15;2.20;;;;;;;;;;5039260;28;20022;-72
2022/03/14 02:56:51;;;;;;;10.80;2.38;;;;;;;;;;5039718;28;20056;-72
2022/03/14 02:59:17;;;;;;;11.43;2.45;;;;;;;;;;5037398;28;20025;-72
2022/03/14 03:01:42;;;;;;;7.68;2.13;;;;;;;;;;5039224;28;20187;-72
2022/03/14 03:04:09;;;;;;;8.60;2.30;;;;;;;;;;5038562;28;20025;-72
2022/03/14 03:06:35;;;;;;;9.60;2.30;;;;;;;;;;5037349;28;20021;-72
2022/03/14 03:09:03;;;;;;;13.35;2.65;;;;;;;;;;5038132;28;20049;-71
2022/03/14 03:11:29;;;;;;;12.32;2.15;;;;;;;;;;5039349;28;20210;-72
2022/03/14 03:13:54;;;;;;;11.93;2.42;;;;;;;;;;5034429;28;20033;-71
2022/03/14 03:16:20;;;;;;;10.00;2.80;;;;;;;;;;5029556;28;20029;-71
2022/03/14 03:18:46;;;;;;;9.15;2.40;;;;;;;;;;5034621;28;20013;-72
2022/03/14 03:21:12;;;;;;;9.20;2.67;;;;;;;;;;5032370;28;20112;-72
2022/03/14 03:23:39;;;;;;;10.20;2.80;;;;;;;;;;5041863;28;20419;-72
2022/03/14 03:26:06;;;;;;;10.07;2.58;;;;;;;;;;5042488;28;20025;-72
2022/03/14 03:28:37;;;;;;;11.98;2.75;;;;;;;;;;5041803;28;20021;-72
2022/03/14 03:31:07;;;;;;;13.38;2.70;;;;;;;;;;5042457;28;20140;-72
2022/03/14 03:33:33;;;;;;;9.50;2.33;;;;;;;;;;5042469;28;20029;-71
2022/03/14 03:35:58;;;;;;;6.85;2.63;;;;;;;;;;5042455;28;20135;-71
2022/03/14 03:38:24;;;;;;;10.65;2.70;;;;;;;;;;5041963;28;20017;-72
2022/03/14 03:40:50;;;;;;;9.50;2.60;;;;;;;;;;5041898;28;20053;-72
2022/03/14 03:43:15;;;;;;;9.25;2.47;;;;;;;;;;5041983;28;20029;-71
2022/03/14 03:45:41;;;;;;;10.25;2.90;;;;;;;;;;5042479;28;20021;-72
2022/03/14 03:48:06;;;;;;;17.08;3.33;;;;;;;;;;5042778;28;20058;-72
2022/03/14 03:50:32;;;;;;;8.38;2.53;;;;;;;;;;5042399;28;20053;-71
2022/03/14 03:52:57;;;;;;;12.93;2.80;;;;;;;;;;5042216;28;20017;-72
2022/03/14 03:55:23;;;;;;;8.75;2.70;;;;;;;;;;5042493;28;20021;-71
2022/03/14 03:57:48;;;;;;;10.43;2.70;;;;;;;;;;5042339;28;20093;-77
2022/03/14 04:00:14;;;;;;;10.63;2.60;;;;;;;;;;5042333;28;20044;-78
2022/03/14 04:02:41;;;;;;;11.23;3.03;;;;;;;;;;5042155;28;20031;-76
2022/03/14 04:05:06;;;;;;;8.00;2.70;;;;;;;;;;5035097;28;20356;-78
2022/03/14 04:07:34;;;;;;;13.45;3.55;;;;;;;;;;5022462;28;20025;-79
2022/03/14 04:10:00;;;;;;;13.85;2.95;;;;;;;;;;5022868;28;20024;-72
2022/03/14 04:12:26;;;;;;;13.35;3.40;;;;;;;;;;5032843;28;20234;-72
2022/03/14 04:15:06;;;;;;;12.77;3.28;;;;;;;;;;5042768;28;20024;-79
2022/03/14 04:17:32;;;;;;;10.43;3.25;;;;;;;;;;5042616;28;20060;-78
2022/03/14 04:20:00;;;;;;;10.20;3.13;;;;;;;;;;5042743;28;20025;-79
2022/03/14 04:22:27;;;;;;;12.82;3.40;;;;;;;;;;5044101;28;20080;-79
2022/03/14 04:24:52;;;;;;;14.68;3.00;;;;;;;;;;5023959;28;20038;-79
2022/03/14 04:27:18;;;;;;;10.43;2.97;;;;;;;;;;5022681;28;20026;-79
2022/03/14 04:29:43;;;;;;;12.18;3.15;;;;;;;;;;5022531;28;20029;-79
2022/03/14 04:32:09;;;;;;;9.68;2.88;;;;;;;;;;5022517;28;20037;-77
2022/03/14 04:34:34;;;;;;;9.32;2.58;;;;;;;;;;5022598;28;20372;-80
2022/03/14 04:37:00;;;;;;;9.63;3.00;;;;;;;;;;5022451;28;20029;-79
2022/03/14 04:39:25;;;;;;;9.43;3.05;;;;;;;;;;5022443;28;20325;-78
2022/03/14 04:41:51;;;;;;;14.55;3.50;;;;;;;;;;5022414;28;20254;-74
2022/03/14 04:44:17;;;;;;;8.40;2.92;;;;;;;;;;5059718;28;20037;-79
2022/03/14 04:46:42;;;;;;;13.50;3.70;;;;;;;;;;5062264;28;20028;-79
2022/03/14 04:49:13;;;;;;;10.73;3.33;;;;;;;;;;5062117;28;20075;-79
2022/03/14 04:51:39;;;;;;;10.77;3.08;;;;;;;;;;5061782;28;20028;-75
2022/03/14 04:54:04;;;;;;;13.63;4.20;;;;;;;;;;5060548;28;20086;-77
2022/03/14 04:56:30;;;;;;;12.95;3.55;;;;;;;;;;5030114;28;20029;-78
2022/03/14 04:58:55;;;;;;;9.70;2.92;;;;;;;;;;5022846;28;20052;-79
2022/03/14 05:01:23;;;;;;;12.40;3.28;;;;;;;;;;5022765;28;20045;-78
2022/03/14 05:03:52;;;;;;;11.52;3.50;;;;;;;;;;5022601;28;20235;-81
2022/03/14 05:06:21;;;;;;;10.52;3.47;;;;;;;;;;5025165;28;20025;-81
2022/03/14 05:08:47;;;;;;;10.07;2.90;;;;;;;;;;5027801;28;20149;-80
2022/03/14 05:11:14;;;;;;;12.65;3.05;;;;;;;;;;5022883;28;20442;-79
2022/03/14 05:13:39;;;;;;;14.35;3.50;;;;;;;;;;5022107;28;20038;-79
2022/03/14 05:16:05;;;;;;;10.10;3.33;;;;;;;;;;5022001;28;20032;-79
2022/03/14 05:18:31;;;;;;;14.07;3.13;;;;;;;;;;5022145;28;20033;-81
2022/03/14 05:20:56;;;;;;;13.18;3.50;;;;;;;;;;5021720;28;20037;-80
2022/03/14 05:23:23;;;;;;;12.20;3.10;;;;;;;;;;5057276;28;20513;-81
2022/03/14 05:25:48;;;;;;;8.20;3.00;;;;;;;;;;5024061;28;20025;-81
2022/03/14 05:28:14;;;;;;;11.32;3.22;;;;;;;;;;5030884;28;20106;-80
2022/03/14 05:30:39;;;;;;;18.08;4.00;;;;;;;;;;5021730;28;20033;-80
2022/03/14 05:33:04;;;;;;;13.05;3.13;;;;;;;;;;5021848;28;20040;-74
2022/03/14 05:35:30;;;;;;;10.25;3.53;;;;;;;;;;5021108;28;20523;-73
2022/03/14 05:37:55;;;;;;;10.57;3.25;;;;;;;;;;5021364;28;20203;-72
2022/03/14 05:40:21;;;;;;;11.85;3.50;;;;;;;;;;5021284;28;20349;-72
2022/03/14 05:42:50;;;;;;;12.45;3.55;;;;;;;;;;5021253;28;20033;-72
2022/03/14 05:45:16;;;;;;;14.70;3.47;;;;;;;;;;5036925;28;20029;-72
2022/03/14 05:47:42;;;;;;;8.45;3.25;;;;;;;;;;5053134;28;20026;-72
2022/03/14 05:50:08;;;;;;;12.57;3.45;;;;;;;;;;5023143;28;20195;-72
2022/03/14 05:52:34;;;;;;;12.80;3.40;;;;;;;;;;5061063;28;20071;-72
2022/03/14 05:54:59;;;;;;;14.05;3.60;;;;;;;;;;5031820;28;20029;-72
2022/03/14 05:57:25;;;;;;;12.18;3.17;;;;;;;;;;5021079;28;20030;-70
2022/03/14 05:59:50;;;;;;;10.25;3.25;;;;;;;;;;5021014;28;20022;-71
2022/03/14 06:02:20;;;;;;;8.10;3.28;;;;;;;;;;5038326;28;20228;-71
2022/03/14 06:04:47;;;;;;;9.75;3.30;;;;;;;;;;5060797;28;20067;-71
2022/03/14 06:07:12;;;;;;;16.38;3.53;;;;;;;;;;5060495;28;20276;-70
2022/03/14 06:09:37;;;;;;;9.43;3.22;;;;;;;;;;5060402;28;20037;-70
2022/03/14 06:12:03;;;;;;;9.75;3.10;;;;;;;;;;5060706;28;20025;-70
2022/03/14 06:14:28;;;;;;;12.60;3.50;;;;;;;;;;5058897;28;20027;-71
2022/03/14 06:16:54;;;;;;;12.60;3.70;;;;;;;;;;5031504;28;20037;-71
2022/03/14 06:19:19;;;;;;;11.95;3.10;;;;;;;;;;5021003;28;20029;-73
2022/03/14 06:21:44;;;;;;;10.70;3.20;;;;;;;;;;5020763;28;20140;-72
2022/03/14 06:24:10;;;;;;;12.48;3.60;;;;;;;;;;5020722;28;20060;-71
2022/03/14 06:26:35;;;;;;;8.05;3.40;;;;;;;;;;5034216;28;20051;-71
2022/03/14 06:29:02;;;;;;;14.45;3.97;;;;;;;;;;5040642;28;20317;-71
2022/03/14 06:31:30;;;;;;;12.02;3.47;;;;;;;;;;5036786;28;20022;-71
2022/03/14 06:33:55;;;;;;;12.48;3.58;;;;;;;;;;5020851;28;20038;-73
2022/03/14 06:36:21;;;;;;;10.50;3.38;;;;;;;;;;5020659;28;20093;-72
2022/03/14 06:38:46;;;;;;;10.50;3.78;;;;;;;;;;5020524;28;20026;-72
2022/03/14 06:41:12;;;;;;;12.05;4.22;;;;;;;;;;5020529;28;20038;-71
2022/03/14 06:43:37;;;;;;;10.80;3.67;;;;;;;;;;5020905;28;20353;-71
2022/03/14 06:46:08;;;;;;;12.05;4.47;;;;;;;;;;5020395;28;20067;-72
2022/03/14 06:48:39;;;;;;;9.20;3.58;;;;;;;;;;5023653;28;20040;-71
2022/03/14 06:51:05;;;;;;;12.98;3.80;;;;;;;;;;5022907;28;20029;-72
2022/03/14 06:53:30;;;;;;;18.08;4.68;;;;;;;;;;5024004;28;20030;-71
2022/03/14 06:55:56;;;;;;;15.27;3.88;;;;;;;;;;5024154;28;20337;-71
2022/03/14 06:58:22;;;;;;;12.88;3.75;;;;;;;;;;5030014;28;20022;-72
2022/03/14 07:00:48;;;;;;;12.75;3.95;;;;;;;;;;5024296;28;20088;-71
2022/03/14 07:03:14;;;;;;;11.93;3.67;;;;;;;;;;5023853;28;20322;-72
2022/03/14 07:05:40;;;;;;;12.98;3.63;;;;;;;;;;5056297;28;20030;-71
2022/03/14 07:08:05;;;;;;;15.38;4.20;;;;;;;;;;5023549;28;20328;-72
2022/03/14 07:10:31;;;;;;;16.02;4.45;;;;;;;;;;5035059;28;20080;-72
2022/03/14 07:12:56;;;;;;;10.57;3.47;;;;;;;;;;5043635;28;20033;-72
2022/03/14 07:15:23;;;;;;;16.02;4.00;;;;;;;;;;5052426;28;20321;-71
2022/03/14 07:17:49;;;;;;;11.55;3.33;;;;;;;;;;5039501;28;20089;-73
2022/03/14 07:20:14;;;;;;;15.35;4.80;;;;;;;;;;5033832;28;20093;-71
2022/03/14 07:22:51;;;;;;;15.27;3.80;;;;;;;;;;5035337;28;20329;-71
2022/03/14 07:25:25;;;;;;;15.20;3.92;;;;;;;;;;5033169;28;20050;-71
2022/03/14 07:27:51;;;;;;;10.63;3.55;;;;;;;;;;5022515;28;20033;-71
2022/03/14 07:30:17;;;;;;;14.15;3.75;;;;;;;;;;5024165;28;20037;-71
2022/03/14 07:32:42;;;;;;;10.40;3.30;;;;;;;;;;5022407;28;20026;-71
2022/03/14 07:35:09;;;;;;;14.25;3.75;;;;;;;;;;5022930;28;20037;-71
2022/03/14 07:37:35;;;;;;;12.77;4.00;;;;;;;;;;5062958;28;20327;-71
2022/03/14 07:40:01;;;;;;;13.18;3.90;;;;;;;;;;5035569;28;20032;-71
2022/03/14 07:42:27;;;;;;;10.40;3.72;;;;;;;;;;5023315;28;20045;-71
2022/03/14 07:44:53;;;;;;;19.88;5.10;;;;;;;;;;5023622;28;20092;-71
2022/03/14 07:47:18;;;;;;;13.30;4.03;;;;;;;;;;5023343;28;20037;-71
2022/03/14 07:49:43;;;;;;;9.05;3.00;;;;;;;;;;5023513;28;20030;-71
2022/03/14 07:52:09;;;;;;;7.57;2.83;;;;;;;;;;5023626;28;20057;-70
2022/03/14 07:54:34;;;;;;;11.32;3.05;;;;;;;;;;5023218;28;20052;-71
2022/03/14 07:57:00;;;;;;;9.00;3.25;;;;;;;;;;5054919;28;20041;-68
2022/03/14 07:59:25;;;;;;;9.55;3.17;;;;;;;;;;5022904;28;20230;-71
2022/03/14 08:01:50;;;;;;;8.90;3.47;;;;;;;;;;5022873;28;20029;-73
2022/03/14 08:04:18;;;;;;;9.98;3.25;;;;;;;;;;5031953;28;20029;-71
2022/03/14 08:06:45;;;;;;;10.00;3.20;;;;;;;;;;5044480;28;20116;-70
2022/03/14 08:09:11;;;;;;;9.40;3.33;;;;;;;;;;5050700;28;20151;-76
2022/03/14 08:11:38;;;;;;;11.05;3.60;;;;;;;;;;5056180;28;20214;-71
2022/03/14 08:14:05;;;;;;;11.30;3.17;;;;;;;;;;5055755;28;20025;-70
2022/03/14 08:16:30;;;;;;;8.05;3.47;;;;;;;;;;5042367;28;20213;-70
2022/03/14 08:18:55;;;;;;;11.65;3.05;;;;;;;;;;5054431;28;20032;-70
2022/03/14 08:21:21;;;;;;;11.57;3.30;;;;;;;;;;5057779;28;20029;-70
2022/03/14 08:23:47;;;;;;;11.07;2.92;;;;;;;;;;5054196;28;20041;-70
2022/03/14 08:26:12;;;;;;;12.88;3.50;;;;;;;;;;5038530;28;20059;-71
2022/03/14 08:28:39;;;;;;;12.82;3.45;;;;;;;;;;5041524;28;20065;-72
2022/03/14 08:31:04;;;;;;;11.65;2.97;;;;;;;;;;5051650;28;20022;-74
2022/03/14 08:33:30;;;;;;;8.85;2.85;;;;;;;;;;5032254;28;20029;-71
2022/03/14 08:36:00;;;;;;;8.48;2.92;;;;;;;;;;5046060;28;20040;-72
2022/03/14 08:38:26;;;;;;;9.00;2.80;;;;;;;;;;5061919;28;20048;-72
2022/03/14 08:40:51;;;;;;;12.05;3.28;;;;;;;;;;5060221;28;20020;-74
2022/03/14 08:43:17;;;;;;;9.70;3.20;;;;;;;;;;5061915;28;20052;-72
2022/03/14 08:45:43;;;;;;;11.13;3.60;;;;;;;;;;5060909;28;20025;-72
2022/03/14 08:48:11;;;;;;;8.73;2.88;;;;;;;;;;5062108;28;20021;-74
2022/03/14 08:50:38;;;;;;;14.82;3.58;;;;;;;;;;5061975;28;20032;-72
2022/03/14 08:53:04;;;;;;;11.63;3.50;;;;;;;;;;5061767;28;20032;-72
2022/03/14 08:55:29;;;;;;;9.02;3.42;;;;;;;;;;5059931;28;20032;-76
2022/03/14 08:57:55;;;;;;;12.20;2.95;;;;;;;;;;5059197;28;20032;-71
2022/03/14 09:00:25;;;;;;;7.68;2.92;;;;;;;;;;5056990;28;20067;-72
2022/03/14 09:02:51;;;;;;;7.68;2.95;;;;;;;;;;5048920;28;20025;-71
2022/03/14 09:05:17;;;;;;;10.80;3.35;;;;;;;;;;5037843;28;20058;-72
2022/03/14 09:07:43;;;;;;;13.20;3.75;;;;;;;;;;5037701;28;20026;-71
2022/03/14 09:10:13;;;;;;;7.78;2.90;;;;;;;;;;5027704;28;20128;-72
2022/03/14 09:12:38;;;;;;;9.02;3.30;;;;;;;;;;5054721;28;20304;-71
2022/03/14 09:15:06;;;;;;;8.70;3.10;;;;;;;;;;5046677;28;20037;-71
2022/03/14 09:17:32;;;;;;;10.48;3.03;;;;;;;;;;5041374;28;20029;-72
2022/03/14 09:20:00;;;;;;;10.13;3.35;;;;;;;;;;5043806;28;20016;-71
2022/03/14 09:22:26;;;;;;;9.43;3.25;;;;;;;;;;5061679;28;20301;-72
2022/03/14 09:24:53;;;;;;;8.43;3.08;;;;;;;;;;5061245;28;20031;-72
2022/03/14 09:27:19;;;;;;;12.50;3.28;;;;;;;;;;5061073;28;20031;-71
2022/03/14 09:29:45;;;;;;;7.03;2.92;;;;;;;;;;5049062;28;20049;-74
2022/03/14 09:32:12;;;;;;;8.95;2.92;;;;;;;;;;5024014;28;20068;-72
2022/03/14 09:34:38;;;;;;;11.98;3.10;;;;;;;;;;5031102;28;20320;-72
2022/03/14 09:37:03;;;;;;;16.08;5.07;;;;;;;;;;5023673;28;20025;-73
2022/03/14 09:39:29;;;;;;;10.15;3.10;;;;;;;;;;5020205;28;20025;-71
2022/03/14 09:41:56;;;;;;;9.85;3.20;;;;;;;;;;5028538;28;20026;-70
2022/03/14 09:44:26;;;;;;;11.70;3.30;;;;;;;;;;5038078;28;20037;-70
2022/03/14 09:46:54;;;;;;;13.82;3.63;;;;;;;;;;5039977;28;20306;-71
2022/03/14 09:49:21;;;;;;;8.70;2.78;;;;;;;;;;5040986;28;20021;-70
2022/03/14 09:51:46;;;;;;;14.52;3.00;;;;;;;;;;5044793;28;20025;-70
2022/03/14 09:54:12;;;;;;;13.27;3.45;;;;;;;;;;5058204;28;20092;-70
2022/03/14 09:56:42;;;;;;;11.98;3.03;;;;;;;;;;5059832;28;20321;-72
2022/03/14 09:59:12;;;;;;;17.02;2.92;;;;;;;;;;5059282;28;20028;-70
2022/03/14 10:01:38;;;;;;;11.98;2.88;;;;;;;;;;5054949;28;20043;-69
2022/03/14 10:04:04;;;;;;;13.05;2.97;;;;;;;;;;5044848;28;20021;-70
2022/03/14 10:06:29;;;;;;;9.73;2.88;;;;;;;;;;5057218;28;20032;-70
2022/03/14 10:08:54;;;;;;;10.48;2.70;;;;;;;;;;5059049;28;20040;-69
2022/03/14 10:11:20;;;;;;;9.93;2.83;;;;;;;;;;5058905;28;20349;-73
2022/03/14 10:13:46;;;;;;;11.45;2.83;;;;;;;;;;5058937;28;20227;-69
2022/03/14 10:16:11;;;;;;;10.13;2.83;;;;;;;;;;5049631;28;20042;-69
2022/03/14 10:19:01;;;;;;;9.40;3.17;;;;;;;;;;5043294;28;20297;-69
2022/03/14 10:21:31;;;;;;;11.35;2.85;;;;;;;;;;5038485;28;20036;-70
2022/03/14 10:24:03;;;;;;;12.32;3.03;;;;;;;;;;5024254;28;20029;-71
2022/03/14 10:26:29;;;;;;;11.10;3.20;;;;;;;;;;5028318;28;20037;-69
2022/03/14 10:28:56;;;;;;;13.05;3.35;;;;;;;;;;5025387;28;20030;-71
2022/03/14 10:31:36;;;;;;;11.27;2.95;;;;;;;;;;5024565;28;20034;-71
2022/03/14 10:34:11;;;;;;;11.02;2.80;;;;;;;;;;5024595;28;20229;-70
2022/03/14 10:36:44;;;;;;;14.02;3.13;;;;;;;;;;5024397;28;20033;-70
2022/03/14 10:39:30;;;;;;;12.70;3.08;;;;;;;;;;5024733;28;20100;-69
2022/03/14 10:42:09;;;;;;;14.27;3.05;;;;;;;;;;5044683;28;20033;-69
2022/03/14 10:44:36;;;;;;;13.50;2.95;;;;;;;;;;5051519;28;20067;-71
2022/03/14 10:47:04;;;;;;;10.50;3.00;;;;;;;;;;5038893;28;20088;-70
2022/03/14 10:49:33;;;;;;;8.98;3.03;;;;;;;;;;5023259;28;20037;-70
2022/03/14 10:52:07;;;;;;;15.48;3.65;;;;;;;;;;5028128;28;20025;-69
2022/03/14 10:54:36;;;;;;;9.30;2.58;;;;;;;;;;5041458;28;20024;-69
2022/03/14 10:57:07;;;;;;;10.88;3.05;;;;;;;;;;5029218;28;20244;-69
2022/03/14 10:59:39;;;;;;;9.23;2.65;;;;;;;;;;5022172;28;20018;-69
2022/03/14 11:02:14;;;;;;;10.15;2.90;;;;;;;;;;5028904;28;20052;-69
2022/03/14 11:04:51;;;;;;;17.92;3.10;;;;;;;;;;5025722;28;20030;-68
2022/03/14 11:07:18;;;;;;;12.73;3.13;;;;;;;;;;5032634;28;20225;-69
2022/03/14 11:09:47;;;;;;;9.68;2.83;;;;;;;;;;5031631;28;20041;-70
2022/03/14 11:12:18;;;;;;;10.20;2.70;;;;;;;;;;5047508;28;20100;-69
2022/03/14 11:15:01;;;;;;;8.15;2.45;;;;;;;;;;5063949;28;20095;-71
2022/03/14 11:17:31;;;;;;;12.90;2.78;;;;;;;;;;5063002;28;20017;-70
2022/03/14 11:19:58;;;;;;;10.88;2.95;;;;;;;;;;5063517;28;20029;-69
2022/03/14 11:22:29;;;;;;;10.02;2.78;;;;;;;;;;5051741;28;20021;-69
2022/03/14 11:24:56;;;;;;;14.38;3.10;;;;;;;;;;5058142;28;20325;-69
2022/03/14 11:27:36;;;;;;;13.68;2.78;;;;;;;;;;5061865;28;20126;-70
2022/03/14 11:30:09;;;;;;;9.27;2.92;;;;;;;;;;5062295;28;20271;-69
2022/03/14 11:32:36;;;;;;;12.98;2.85;;;;;;;;;;5061289;28;20062;-69
2022/03/14 11:35:03;;;;;;;11.93;2.90;;;;;;;;;;5062615;28;20028;-73
2022/03/14 11:37:31;;;;;;;14.68;2.83;;;;;;;;;;5063234;28;20021;-70
2022/03/14 11:39:57;;;;;;;11.73;2.60;;;;;;;;;;5063056;28;20021;-70
2022/03/14 11:42:22;;;;;;;12.30;2.50;;;;;;;;;;5062052;28;20029;-69
2022/03/14 11:44:49;;;;;;;12.70;3.05;;;;;;;;;;5063159;28;20025;-69
2022/03/14 11:47:18;;;;;;;11.93;2.30;;;;;;;;;;5061107;28;20124;-69
2022/03/14 11:49:43;;;;;;;13.30;2.55;;;;;;;;;;5061579;28;20088;-69
2022/03/14 11:52:20;;;;;;;8.75;2.50;;;;;;;;;;5043034;28;20206;-69
2022/03/14 11:54:48;;;;;;;13.27;2.33;;;;;;;;;;5033626;28;20360;-69
2022/03/14 11:57:33;;;;;;;12.82;2.83;;;;;;;;;;5028387;28;20367;-71
2022/03/14 11:59:58;;;;;;;15.02;2.70;;;;;;;;;;5030820;28;20014;-70
2022/03/14 12:02:42;;;;;;;11.95;2.80;;;;;;;;;;5041260;28;20082;-70
2022/03/14 12:05:08;;;;;;;10.65;2.75;;;;;;;;;;5038343;28;20036;-69
2022/03/14 12:07:34;;;;;;;10.27;2.25;;;;;;;;;;5038829;28;20037;-69
2022/03/14 12:10:02;;;;;;;12.30;2.25;;;;;;;;;;5027736;28;20250;-69
2022/03/14 12:12:29;;;;;;;10.95;2.40;;;;;;;;;;5053732;28;20021;-70
2022/03/14 12:14:58;;;;;;;9.45;2.50;;;;;;;;;;5062703;28;20249;-69
2022/03/14 12:17:31;;;;;;;11.10;2.55;;;;;;;;;;5061789;28;20025;-70
2022/03/14 12:19:59;;;;;;;16.17;2.80;;;;;;;;;;5062606;28;20024;-69
2022/03/14 12:22:32;;;;;;;12.40;2.55;;;;;;;;;;5060504;28;20084;-69
2022/03/14 12:25:00;;;;;;;14.73;2.63;;;;;;;;;;5061101;28;20045;-69
2022/03/14 12:27:33;;;;;;;9.40;2.47;;;;;;;;;;5061419;28;20021;-69
2022/03/14 12:29:59;;;;;;;10.25;2.53;;;;;;;;;;5061429;28;20242;-69
2022/03/14 12:32:30;;;;;;;11.70;2.30;;;;;;;;;;5060546;28;20027;-72
2022/03/14 12:35:12;;;;;;;12.95;2.40;;;;;;;;;;5022481;28;20026;-70
2022/03/14 12:37:42;;;;;;;12.20;2.40;;;;;;;;;;5023641;28;20018;-71
2022/03/14 12:40:28;;;;;;;13.90;2.47;;;;;;;;;;5040483;28;20100;-71
2022/03/14 12:43:12;;;;;;;;;;;;;;;;;;5041803;28;20065;-70
2022/03/14 12:45:40;;;;;;;10.55;2.10;;;;;;;;;;5041086;28;19982;-70
2022/03/14 12:48:21;;;;;;;9.43;1.80;;;;;;;;;;5041902;28;20017;-70
2022/03/14 12:50:50;;;;;;;8.68;2.00;;;;;;;;;;5041855;28;20394;-70
2022/03/14 12:53:36;;;;;;;8.57;1.63;;;;;;;;;;5041402;28;20037;-69
2022/03/14 12:56:10;;;;;;;9.93;2.33;;;;;;;;;;5041773;28;20025;-70
2022/03/14 12:58:35;;;;;;;11.70;1.92;;;;;;;;;;5041780;28;20071;-70
2022/03/14 13:01:02;;;;;;;12.15;2.05;;;;;;;;;;5041563;28;20096;-71
2022/03/14 13:03:30;;;;;;;9.32;2.30;;;;;;;;;;5041745;28;20057;-71
2022/03/14 13:06:03;;;;;;;13.15;2.20;;;;;;;;;;5078272;28;20450;-71
2022/03/14 13:08:29;;;;;;;11.05;2.25;;;;;;;;;;5077829;28;20028;-71
2022/03/14 13:10:56;;;;;;;10.40;2.10;;;;;;;;;;5062553;28;20025;-71
2022/03/14 13:13:30;;;;;;;8.20;2.05;;;;;;;;;;5058280;28;20031;-71
2022/03/14 13:16:06;;;;;;;14.07;2.38;;;;;;;;;;5057743;28;20037;-72
2022/03/14 13:18:45;;;;;;;11.70;2.03;;;;;;;;;;5058105;28;20104;-72
2022/03/14 13:21:15;;;;;;;11.70;2.30;;;;;;;;;;5074965;28;20021;-70
2022/03/14 13:23:41;;;;;;;10.25;2.38;;;;;;;;;;5077641;28;20100;-71
2022/03/14 13:26:06;;;;;;;7.35;2.30;;;;;;;;;;5077664;28;20016;-71
2022/03/14 13:28:34;;;;;;;13.88;2.25;;;;;;;;;;5077738;28;20033;-71
2022/03/14 13:31:02;;;;;;;10.95;2.30;;;;;;;;;;5077761;28;20025;-71
2022/03/14 13:33:35;;;;;;;10.63;2.20;;;;;;;;;;5077760;28;20020;-72
2022/03/14 13:36:04;;;;;;;5.75;1.92;;;;;;;;;;5077608;28;20031;-71
2022/03/14 13:38:46;;;;;;;8.55;2.10;;;;;;;;;;5077284;28;20217;-72
2022/03/14 13:41:11;;;;;;;9.70;2.45;;;;;;;;;;5077497;28;20129;-71
2022/03/14 13:43:39;;;;;;;9.25;1.95;;;;;;;;;;5077556;28;20028;-72
2022/03/14 13:46:34;;;;;;;11.30;2.55;;;;;;;;;;5075853;28;20021;-72
2022/03/14 13:49:18;;;;;;;10.10;1.80;;;;;;;;;;5075199;28;20021;-72
2022/03/14 13:51:53;;;;;;;9.95;2.33;;;;;;;;;;5075665;28;20265;-72
2022/03/14 13:54:23;;;;;;;;;;;;;;;;;;5075056;28;20317;-74
2022/03/14 13:56:49;;;;;;;10.85;2.00;;;;;;;;;;5074193;28;19944;-73
2022/03/14 13:59:26;;;;;;;9.57;2.47;;;;;;;;;;5076218;28;20063;-73
2022/03/14 14:01:53;;;;;;;11.18;2.30;;;;;;;;;;5077010;28;20245;-73
2022/03/14 14:04:30;;;;;;;8.52;1.85;;;;;;;;;;5078887;28;20262;-72
2022/03/14 14:06:58;;;;;;;14.45;2.08;;;;;;;;;;5076048;28;20060;-73
2022/03/14 14:09:39;;;;;;;9.80;2.00;;;;;;;;;;5075846;28;20057;-73
2022/03/14 14:12:17;;;;;;;8.02;1.75;;;;;;;;;;5076169;28;20281;-73
2022/03/14 14:14:51;;;;;;;9.68;2.00;;;;;;;;;;5075859;28;20028;-74
2022/03/14 14:17:19;;;;;;;8.25;1.92;;;;;;;;;;5063126;28;20096;-72
2022/03/14 14:20:02;;;;;;;8.13;1.98;;;;;;;;;;5063168;28;20132;-71
2022/03/14 14:22:51;;;;;;;10.10;2.13;;;;;;;;;;5063254;28;20029;-72
2022/03/14 14:25:20;;;;;;;8.75;2.47;;;;;;;;;;5054939;28;20326;-72
2022/03/14 14:28:06;;;;;;;8.52;2.00;;;;;;;;;;5061915;28;20084;-73
2022/03/14 14:30:44;;;;;;;11.50;1.98;;;;;;;;;;5062585;28;20013;-73
2022/03/14 14:33:22;;;;;;;6.45;2.00;;;;;;;;;;5063528;28;20221;-74
2022/03/14 14:35:51;;;;;;;10.65;2.03;;;;;;;;;;5062589;28;20052;-73
2022/03/14 14:38:20;;;;;;;8.85;1.83;;;;;;;;;;5062693;28;20188;-73
2022/03/14 14:40:48;;;;;;;11.45;1.90;;;;;;;;;;5062204;28;20025;-72